Snake Valley, Nevada Weather observations

Data are for 10 minute period ending at time listed.
 Day   Time   Solar   Ave.   Ave.  Ave.  Vector  Max.   Baro.   Total    
  of    of     Rad.   Air    Rel.  Wind   Wind   Wind  Press.  Precip.   
Year   Day            Temp.  Hum.  Speed  Dir.   Gust                    
2016   (PST)  Kw/m2    F      %     mph   deg.    mph    mb.     in.     
-------------------------------------------------------------------------
 269   13:50   0.66   68.5    22    6.0    23    14.0   852.3    0.00 
 269   14:00   0.64   68.4    23    7.3    13    13.4   852.3    0.00 
 269   14:10   0.61   68.4    25    6.7    38    11.5   852.2    0.00 
 269   14:20   0.59   68.6    25    6.6    34    11.1   852.2    0.00 
 269   14:30   0.56   68.1    25    9.4    31    15.1   852.2    0.00 
 269   14:40   0.54   68.0    26    7.8    39    11.8   852.1    0.00 
 269   14:50   0.51   68.0    25    8.8    17    14.9   852.0    0.00 
 269   15:00   0.48   67.5    26    8.4    32    13.2   852.0    0.00 
 269   15:10   0.45   67.6    26    7.8    26    12.7   852.0    0.00 
 269   15:20   0.41   67.6    27    8.8    32    13.4   851.9    0.00 
 269   15:30   0.38   67.1    26    8.8    32    15.0   851.7    0.00 
 269   15:40   0.35   67.0    26    7.9    22    13.5   851.7    0.00 
 269   15:50   0.31   66.8    26    8.3    29    14.5   851.7    0.00 
 269   16:00   0.28   66.5    27    6.9    21    12.1   851.7    0.00 
 269   16:10   0.25   66.1    26    8.8    26    12.3   851.7    0.00 
 269   16:20   0.21   65.6    26    8.3    20    14.2   851.7    0.00 
 269   16:30   0.18   65.1    27    8.2    16    12.8   851.7    0.00 
 269   16:40   0.15   64.7    26    9.2    10    14.3   851.7    0.00 
 269   16:50   0.12   64.0    26    8.1     9    14.7   851.7    0.00 
 269   17:00   0.09   63.3    27    9.4     8    15.6   851.7    0.00 
 269   17:10   0.02   62.1    28    7.1     4    12.0   851.8    0.00 
 269   17:20   0.01   60.9    29    5.9   359    11.4   852.1    0.00 
 269   17:30   0.01   60.1    32    5.2   358     8.3   852.2    0.00 
 269   17:40   0.00   59.0    35    5.9     5     9.1   852.4    0.00 
 269   17:50   0.00   58.5    36    6.5     5    10.4   852.4    0.00 
 269   18:00   0.00   58.1    38    5.5     2    10.2   852.6    0.00 
 269   18:10   0.00   57.6    39    3.7     2     9.1   852.7    0.00 
 269   18:20   0.00   56.3    42    1.2   274     3.4   852.9    0.00 
 269   18:30   0.00   54.1    47    1.0   285     2.5   853.0    0.00 
 269   18:40   0.00   53.5    49    2.0   294     4.5   853.1    0.00 
 269   18:50   0.00   52.5    52    3.3   285     4.3   853.2    0.00 
 269   19:00   0.00   51.8    52    4.4   286     6.1   853.3    0.00 
 269   19:10   0.00   51.2    53    3.8   291     4.7   853.4    0.00 
 269   19:20   0.00   48.7    58    2.4   247     3.5   853.5    0.00 
 269   19:30   0.00   48.2    57    4.8   256     6.9   853.6    0.00 
 269   19:40   0.00   50.5    50    3.2   257     6.9   853.7    0.00 
 269   19:50   0.00   53.6    40    1.7   310     3.6   853.8    0.00 
 269   20:00   0.00   55.5    36    3.0   355     6.4   853.8    0.00 
 269   20:10   0.00   54.9    37    1.3    61     5.5   854.0    0.00 
 269   20:20   0.00   53.6    39    1.9   181     3.1   853.9    0.00 
 269   20:30   0.00   50.7    47    2.3   244     4.3   853.9    0.00 
 269   20:40   0.00   44.2    61    2.9   242     3.9   853.9    0.00 
 269   20:50   0.00   43.8    61    2.5   234     3.5   853.8    0.00 
 269   21:00   0.00   43.7    61    3.6   239     5.1   853.8    0.00 
 269   21:10   0.00   44.1    59    3.3   239     5.5   853.8    0.00 
 269   21:20   0.00   45.6    55    4.4   248     5.7   853.7    0.00 
 269   21:30   0.00   46.7    52    3.9   252     6.2   853.7    0.00 
 269   21:40   0.00   46.2    56    4.5   279     6.1   853.7    0.00 
 269   21:50   0.00   44.2    62    5.8   287     7.6   853.6    0.00 
 269   22:00   0.00   44.6    60    6.2   288     7.5   853.5    0.00 
 269   22:10   0.00   45.4    56    6.8   275     8.5   853.5    0.00 
 269   22:20   0.00   44.6    59    5.5   286     7.6   853.4    0.00 
 269   22:30   0.00   46.1    52    4.3   293     5.7   853.4    0.00 
 269   22:40   0.00   45.5    54    3.6   302     5.0   853.4    0.00 
 269   22:50   0.00   43.4    60    3.4   290     4.7   853.2    0.00 
 269   23:00   0.00   39.6    74    2.7   272     4.1   853.2    0.00 
 269   23:10   0.00   39.4    72    4.4   285     5.8   853.1    0.00 
 269   23:20   0.00   39.3    69    2.8   298     4.7   852.9    0.00 
 269   23:30   0.00   41.2    61    3.3   306     5.1   852.8    0.00 
 269   23:40   0.00   41.4    60    3.9   318     5.5   852.7    0.00 
 269   23:50   0.00   43.2    56    5.0   299     6.8   852.6    0.00 
 270    0:00   0.00   42.9    59    3.3   303     5.2   852.6    0.00 
 270    0:10   0.00   43.9    54    2.2   312     4.4   852.5    0.00 
 270    0:20   0.00   43.3    58    2.6   158     4.7   852.5    0.00 
 270    0:30   0.00   39.9    65    2.7   188     4.7   852.6    0.00 
 270    0:40   0.00   37.8    68    2.0   206     3.8   852.6    0.00 
 270    0:50   0.00   37.3    70    1.1   286     3.2   852.6    0.00 
 270    1:00   0.00   38.2    71    3.3   258     4.7   852.4    0.00 
 270    1:10   0.00   38.4    69    4.4   250     5.4   852.4    0.00 
 270    1:20   0.00   39.0    68    5.0   284     7.0   852.4    0.00 
 270    1:30   0.00   38.2    72    4.8   282     6.0   852.4    0.00 
 270    1:40   0.00   38.1    74    5.2   282     6.7   852.3    0.00 
 270    1:50   0.00   37.7    76    4.6   281     5.8   852.2    0.00 
 270    2:00   0.00   37.4    75    4.3   301     5.6   852.1    0.00 
 270    2:10   0.00   37.0    76    3.1   274     3.7   852.1    0.00 
 270    2:20   0.00   36.6    75    1.0   275     2.1   852.1    0.00 
 270    2:30   0.00   36.7    74    1.8   346     3.4   852.0    0.00 
 270    2:40   0.00   38.3    67    2.8   275     3.7   851.8    0.00 
 270    2:50   0.00   35.8    77    2.7   293     3.7   851.8    0.00 
 270    3:00   0.00   35.8    78    2.4   271     2.9   851.8    0.00 
 270    3:10   0.00   37.9    71    4.0   306     8.1   851.6    0.00 
 270    3:20   0.00   40.9    64    4.4   302     7.5   851.6    0.00 
 270    3:30   0.00   37.5    69    3.0   158     5.0   851.7    0.00 
 270    3:40   0.00   34.8    74    0.2   150     1.2   851.7    0.00 
 270    3:50   0.00   34.6    74    1.2   191     2.0   851.7    0.00 
 270    4:00   0.00   33.6    79    1.4   258     2.3   851.7    0.00 
 270    4:10   0.00   35.2    72    0.8   282     1.7   851.7    0.00 
 270    4:20   0.00   34.1    79    3.1   284     4.5   851.8    0.00 
 270    4:30   0.00   33.1    81    2.7   314     4.0   851.8    0.00 
 270    4:40   0.00   32.7    82    3.3   298     4.0   852.0    0.00 
 270    4:50   0.00   32.9    81    3.1   273     4.5   852.1    0.00 
 270    5:00   0.00   32.5    84    2.6   278     4.7   852.2    0.00 
 270    5:10   0.00   32.7    81    4.3   289     5.6   852.2    0.00 
 270    5:20   0.00   33.4    80    3.4   279     4.9   852.3    0.00 
 270    5:30   0.00   33.1    82    3.1   272     4.8   852.4    0.00 
 270    5:40   0.01   33.0    85    2.9   282     3.8   852.4    0.00 
 270    5:50   0.03   34.8    79    2.8   266     3.7   852.5    0.00 
 270    6:00   0.05   34.7    83    2.5   273     3.6   852.5    0.00 
 270    6:10   0.07   37.3    78    2.9   259     3.6   852.6    0.00 
 270    6:20   0.10   39.1    76    2.6   254     3.4   852.7    0.00 
 270    6:30   0.12   41.7    72    1.3   254     2.1   852.8    0.00 
 270    6:40   0.15   44.4    68    0.8   282     1.5   852.9    0.00 
 270    6:50   0.18   47.2    63    0.2   263     1.0   853.1    0.00 
 270    7:00   0.21   51.4    46    0.0     0     0.0   853.2    0.00 
 270    7:10   0.25   54.9    42    0.2    29     1.2   853.3    0.00 
 270    7:20   0.28   54.8    46    0.4   196     1.6   853.4    0.00 
 270    7:30   0.31   56.4    45    1.7   137     3.1   853.4    0.00 
 270    7:40   0.34   55.9    51    2.4   125     3.4   853.4    0.00 
 270    7:50   0.38   56.0    47    2.6   120     3.6   853.4    0.00 
 270    8:00   0.41   56.5    44    3.0   117     4.7   853.4    0.00 
 270    8:10   0.44   57.5    42    2.7   109     4.5   853.3    0.00 
 270    8:20   0.48   59.5    38    2.4   126     4.3   853.3    0.00 
 270    8:30   0.51   61.0    36    1.9   115     3.9   853.4    0.00 
 270    8:40   0.54   62.3    33    1.9    75     3.9   853.3    0.00 
 270    8:50   0.56   63.9    30    1.7   123     4.0   853.2    0.00 
 270    9:00   0.59   63.8    31    2.7     9     5.5   853.1    0.00 
 270    9:10   0.61   63.4    31    2.7     4     5.6   853.1    0.00 
 270    9:20   0.64   64.7    30    2.0    67     4.0   852.9    0.00 
 270    9:30   0.66   65.7    28    1.4   356     3.8   852.6    0.00 
 270    9:40   0.68   65.7    30    3.2    40     6.5   852.5    0.00 
 270    9:50   0.70   65.5    32    4.1    39     7.7   852.4    0.00 
 270   10:00   0.72   65.6    32    4.3    13     9.2   852.2    0.00 
 270   10:10   0.73   66.1    30    3.4    36     7.9   852.1    0.00 
 270   10:20   0.75   66.7    32    5.0    32     8.4   852.0    0.00 
 270   10:30   0.76   66.8    32    4.5    45     8.8   852.0    0.00 
 270   10:40   0.77   67.5    29    3.5     9     9.0   851.8    0.00 
 270   10:50   0.78   67.7    28    2.7    49     7.2   851.7    0.00 
 270   11:00   0.79   68.8    28    3.0     7     9.0   851.6    0.00 
 270   11:10   0.80   68.3    28    4.1    58     8.5   851.4    0.00 
 270   11:20   0.80   69.5    27    3.0    17     6.7   851.3    0.00 
 270   11:30   0.81   69.2    26    3.4   346     7.7   851.2    0.00 
 270   11:40   0.81   69.1    27    2.9   275     5.4   851.1    0.00 
 270   11:50   0.81   70.3    26    3.2   359     6.4   850.9    0.00 
 270   12:00   0.80   71.0    23    2.2    93     4.9   850.7    0.00 
 270   12:10   0.80   71.4    25    3.4   358     6.9   850.5    0.00 
 270   12:20   0.79   71.5    24    1.9   287     4.3   850.4    0.00 
 270   12:30   0.78   72.8    22    1.9    84     5.0   850.2    0.00 
 270   12:40   0.78   73.5    22    2.9   355     7.6   850.1    0.00 
 270   12:50   0.77   72.7    23    3.5    15     6.7   850.0    0.00 
 270   13:00   0.75   73.7    22    2.6    25     5.0   849.9    0.00 
 270   13:10   0.74   74.6    21    2.3    58     6.8   849.8    0.00 
 270   13:20   0.72   74.2    23    3.8    28     8.0   849.8    0.00 
 270   13:30   0.70   74.7    20    3.7   122     9.1   849.6    0.00 
 270   13:40   0.68   74.3    25    5.5    57    12.9   849.6    0.00 

Return to Snake Valley graphs page.


Western Regional Climate Center,wrcc@dri.edu